Pelican State — WDE4433 — position and weather

sailwx.info

Track history (hours):
 
Tides and Currents Weather Stations Pressure Air Temp Water Temp Dewpoint Dewpoint Depression Visibility Wind Speed Wind Dir Waves Ship Positions

Pelican State

Owner: Crowley Petroleum Serives, Jacksonville, FL. More information available from US FCC via Universal Licensing System and Coast Guard Vessel Documentation Center.

Last reported at 2017-Jul-27 22:30 UTC. Time now 2017-Jul-27 22:33 UTC.
Position N 37°36' W 123°27'.

Length 183 m; draft 9.7 m.

Type: Tanker. MMSI: 367353110.

Date/timePositionNaut miles runAvg speedWind from/ knotsBaromVisibWave heightAir tempDewpointWater temp
2017-Jul-27 22:30N 37°36' W 123°27'611.3
2017-Jul-27 22:00N 37°38' W 123°34'611.5
2017-Jul-27 21:30N 37°40' W 123°41'611.2
2017-Jul-27 21:00N 37°41' W 123°47'511.0
2017-Jul-27 20:30N 37°43' W 123°54'510.7
2017-Jul-27 20:00N 37°45' W 124°00'510.6
2017-Jul-27 19:31N 37°47' W 124°07'610.2
2017-Jul-27 18:57N 37°51' W 124°12'511.6
2017-Jul-27 18:30N 37°55' W 124°15'611.8
2017-Jul-27 18:00N 38°00' W 124°19'712.0
2017-Jul-27 17:26N 38°06' W 124°23'1312.0
2017-Jul-27 16:20N 38°18' W 124°31'412.0
2017-Jul-27 16:00N 38°21' W 124°34'711.9
2017-Jul-27 15:25N 38°27' W 124°38'511.8
2017-Jul-27 14:59N 38°32' W 124°41'1412.0
2017-Jul-27 13:48N 38°44' W 124°51'27911.3
2017-Jul-26 13:09N 43°20' W 125°45'411.5
2017-Jul-26 12:49N 43°24' W 125°45'611.6
2017-Jul-26 12:19N 43°30' W 125°45'511.7
2017-Jul-26 11:55N 43°34' W 125°45'511.9
2017-Jul-26 11:28N 43°39' W 125°45'611.8
2017-Jul-26 11:00N 43°45' W 125°45'611.5
2017-Jul-26 10:31N 43°51' W 125°46'611.6
2017-Jul-26 10:00N 43°57' W 125°45'611.5
2017-Jul-26 09:30N 44°02' W 125°45'611.3
2017-Jul-26 09:00N 44°08' W 125°46'611.6
2017-Jul-26 08:29N 44°14' W 125°46'611.9
2017-Jul-26 08:00N 44°20' W 125°46'611.9
2017-Jul-26 07:29N 44°26' W 125°45'611.7
2017-Jul-26 07:00N 44°31' W 125°45'611.9
2017-Jul-26 06:30N 44°37' W 125°45'611.8
2017-Jul-26 06:00N 44°43' W 125°45'611.6
2017-Jul-26 05:30N 44°49' W 125°45'611.7
2017-Jul-26 05:00N 44°55' W 125°45'611.9
2017-Jul-26 04:30N 45°01' W 125°45'611.7
2017-Jul-26 04:00N 45°07' W 125°45'611.9
2017-Jul-26 03:31N 45°13' W 125°45'612.3
2017-Jul-26 03:00N 45°19' W 125°45'612.1
2017-Jul-26 02:31N 45°25' W 125°45'612.2
2017-Jul-26 02:00N 45°31' W 125°45'612.1
2017-Jul-26 01:30N 45°37' W 125°45'611.9
2017-Jul-26 01:00N 45°43' W 125°45'611.7
2017-Jul-26 00:31N 45°49' W 125°45'611.6
2017-Jul-26 00:01N 45°55' W 125°45'611.7
2017-Jul-25 23:30N 46°00' W 125°45'611.8
2017-Jul-25 23:00N 46°06' W 125°45'611.8
2017-Jul-25 22:30N 46°12' W 125°45'611.7
2017-Jul-25 22:00N 46°18' W 125°45'611.7
2017-Jul-25 21:30N 46°24' W 125°45'611.6
2017-Jul-25 21:00N 46°30' W 125°45'611.8
2017-Jul-25 20:30N 46°36' W 125°45'612.9
2017-Jul-25 20:00N 46°42' W 125°45'813.9
2017-Jul-25 19:27N 46°50' W 125°45'814.7
2017-Jul-25 18:56N 46°57' W 125°45'614.8
2017-Jul-25 18:31N 47°04' W 125°45'714.9
2017-Jul-25 18:01N 47°11' W 125°45'814.8
2017-Jul-25 17:28N 47°19' W 125°45'714.7
2017-Jul-25 17:01N 47°26' W 125°45'714.4
2017-Jul-25 16:30N 47°33' W 125°46'714.2
2017-Jul-25 16:00N 47°40' W 125°45'714.3
2017-Jul-25 15:30N 47°46' W 125°40'714.4
2017-Jul-25 15:01N 47°52' W 125°34'1414.4
2017-Jul-25 14:00N 48°05' W 125°23'714.7
2017-Jul-25 13:30N 48°11' W 125°18'714.3
2017-Jul-25 13:00N 48°18' W 125°13'713.4
2017-Jul-25 12:28N 48°24' W 125°08'613.7
2017-Jul-25 12:00N 48°29' W 125°02'713.1
2017-Jul-25 11:31N 48°31' W 124°53'714.6
2017-Jul-25 11:01N 48°30' W 124°42'714.1
2017-Jul-25 10:30N 48°27' W 124°32'714.0
2017-Jul-25 10:01N 48°25' W 124°22'714.0
2017-Jul-25 09:30N 48°22' W 124°12'714.2
2017-Jul-25 09:00N 48°19' W 124°03'714.3
2017-Jul-25 08:30N 48°17' W 123°52'815.2
2017-Jul-25 08:00N 48°16' W 123°41'714.8
2017-Jul-25 07:30N 48°15' W 123°30'713.2
2017-Jul-25 07:00N 48°10' W 123°23'4 7.9
2017-Jul-25 06:30N 48°10' W 123°17'714.1
2017-Jul-25 05:59N 48°15' W 123°09'613.3
2017-Jul-25 05:30N 48°19' W 123°02'713.3
2017-Jul-25 05:00N 48°22' W 122°53'713.0
2017-Jul-25 04:30N 48°26' W 122°46'510.5
2017-Jul-25 04:00N 48°32' W 122°45'510.7
2017-Jul-25 03:30N 48°37' W 122°45'510.4
2017-Jul-25 03:00N 48°42' W 122°44'510.9
2017-Jul-25 02:30N 48°48' W 122°46'4 0.1
2017-Jul-23 19:56N 48°52' W 122°46'1 2.7
2017-Jul-23 19:28N 48°51' W 122°45'1 2.1
2017-Jul-23 19:00N 48°50' W 122°45'3 4.4
2017-Jul-23 18:25N 48°47' W 122°46'3 8.0
2017-Jul-23 18:00N 48°44' W 122°45'4 8.4
2017-Jul-23 17:30N 48°40' W 122°43'4 9.1
2017-Jul-23 17:00N 48°35' W 122°46'3 6.1
2017-Jul-23 16:30N 48°32' W 122°45'610.3
2017-Jul-23 15:58N 48°32' W 122°36'1 0.1
2017-Jul-22 22:55N 48°31' W 122°35'0 0.1
2017-Jul-22 22:16N 48°31' W 122°35'0 0.2
2017-Jul-22 21:58N 48°31' W 122°35'0 0.1
2017-Jul-22 21:22N 48°31' W 122°35'0 0.0
2017-Jul-22 20:58N 48°31' W 122°35'0 0.0
2017-Jul-22 20:28N 48°31' W 122°35'0 0.0
2017-Jul-22 19:58N 48°31' W 122°35'0 0.3
2017-Jul-22 19:28N 48°31' W 122°35'0 0.0
2017-Jul-22 18:52N 48°31' W 122°35'0 0.1
2017-Jul-22 18:28N 48°31' W 122°35'0 0.0
2017-Jul-22 17:58N 48°31' W 122°35'0 0.0
2017-Jul-22 17:28N 48°31' W 122°35'0 0.1
2017-Jul-22 16:46N 48°31' W 122°35'0 0.0
2017-Jul-22 16:28N 48°31' W 122°35'0 0.0
2017-Jul-22 15:58N 48°31' W 122°35'0 0.0
2017-Jul-22 15:22N 48°31' W 122°35'0 0.0
2017-Jul-22 14:58N 48°31' W 122°35'0 0.0
2017-Jul-22 13:46N 48°31' W 122°35'0 0.1
2017-Jul-22 13:25N 48°31' W 122°35'0 0.1
2017-Jul-22 12:52N 48°31' W 122°35'0 0.0
2017-Jul-22 12:28N 48°31' W 122°35'0 0.0
2017-Jul-22 12:00N 48°31' W 122°35'0 0.0
2017-Jul-22 11:30N 48°31' W 122°35'0 0.2
2017-Jul-22 11:00N 48°31' W 122°35'0 0.2
2017-Jul-22 10:30N 48°31' W 122°35'0 0.0
2017-Jul-22 10:00N 48°31' W 122°35'0 0.3
2017-Jul-22 09:30N 48°31' W 122°35'1 2.8
2017-Jul-22 09:00N 48°31' W 122°37'610.9
2017-Jul-22 08:29N 48°28' W 122°44'714.5
2017-Jul-22 08:00N 48°23' W 122°51'916.1
2017-Jul-22 07:28N 48°18' W 123°01'714.9
2017-Jul-22 06:59N 48°15' W 123°11'714.0
2017-Jul-22 06:28N 48°11' W 123°21'510.1
2017-Jul-22 05:59N 48°11' W 123°28'611.1
2017-Jul-22 05:28N 48°13' W 123°36'612.2
2017-Jul-22 04:59N 48°13' W 123°45'714.2
2017-Jul-22 04:30N 48°14' W 123°55'713.6
2017-Jul-22 04:00N 48°16' W 124°05'713.7
2017-Jul-22 03:30N 48°19' W 124°14'713.5
2017-Jul-22 03:00N 48°22' W 124°23'713.2
2017-Jul-22 02:30N 48°25' W 124°32'713.1
2017-Jul-22 02:00N 48°28' W 124°41'612.8
2017-Jul-22 01:30N 48°28' W 124°51'612.5
2017-Jul-22 01:00N 48°28' W 124°60'814.9
2017-Jul-22 00:30N 48°21' W 125°06'714.7
2017-Jul-22 00:00N 48°15' W 125°11'814.7
2017-Jul-21 23:29N 48°08' W 125°17'3812.5
2017-Jul-21 20:26N 47°35' W 125°45'2215.0
2017-Jul-21 18:59N 47°13' W 125°45'815.4
2017-Jul-21 18:28N 47°05' W 125°45'1320.9
2017-Jul-21 17:50N 46°52' W 125°45'1 3.3
2017-Jul-21 17:30N 46°51' W 125°45'714.5
2017-Jul-21 17:01N 46°44' W 125°45'1814.7
2017-Jul-21 15:48N 46°26' W 125°45'714.9
2017-Jul-21 15:21N 46°20' W 125°45'814.8
2017-Jul-21 14:51N 46°12' W 125°46'515.2
2017-Jul-21 14:30N 46°07' W 125°45'714.9
2017-Jul-21 14:00N 45°60' W 125°45'714.6
2017-Jul-21 13:30N 45°52' W 125°45'814.4
2017-Jul-21 12:57N 45°44' W 125°45'614.5
2017-Jul-21 12:30N 45°38' W 125°44'714.5
2017-Jul-21 12:01N 45°31' W 125°44'714.9
2017-Jul-21 11:31N 45°23' W 125°43'714.9
2017-Jul-21 11:01N 45°16' W 125°42'714.9
2017-Jul-21 10:30N 45°08' W 125°45'815.0
2017-Jul-21 10:00N 45°01' W 125°45'715.0
2017-Jul-21 09:31N 44°54' W 125°45'814.9
2017-Jul-21 09:00N 44°46' W 125°45'714.9
2017-Jul-21 08:31N 44°39' W 125°46'714.6
2017-Jul-21 08:00N 44°31' W 125°46'814.6
2017-Jul-21 07:29N 44°24' W 125°46'714.6
2017-Jul-21 07:00N 44°17' W 125°46'814.8
2017-Jul-21 06:27N 44°09' W 125°45'814.7
2017-Jul-21 05:56N 44°01' W 125°45'613.9
2017-Jul-21 05:31N 43°55' W 125°45'714.5
2017-Jul-21 05:00N 43°48' W 125°45'815.1
2017-Jul-21 04:30N 43°40' W 125°44'915.0
2017-Jul-21 03:54N 43°31' W 125°45'614.8
2017-Jul-21 03:28N 43°25' W 125°45'30614.1
2017-Jul-20 05:43N 38°22' W 124°49'313.2
2017-Jul-20 05:30N 38°19' W 124°48'4413.5
2017-Jul-20 02:15N 37°39' W 124°26'313.4
2017-Jul-20 02:00N 37°35' W 124°25'713.2
2017-Jul-20 01:27N 37°29' W 124°21'613.4
2017-Jul-20 01:00N 37°23' W 124°17'2313.3
2017-Jul-19 23:17N 37°02' W 124°06'413.3
2017-Jul-19 23:00N 36°59' W 124°04'612.9
2017-Jul-19 22:30N 36°53' W 124°01'1912.8
2017-Jul-19 21:00N 36°35' W 123°51'2213.0
2017-Jul-19 19:16N 36°15' W 123°40'312.8
2017-Jul-19 19:00N 36°12' W 123°39'612.9
2017-Jul-19 18:30N 36°06' W 123°35'612.8
2017-Jul-19 18:00N 36°00' W 123°32'612.9
2017-Jul-19 17:30N 35°54' W 123°29'612.9
2017-Jul-19 17:00N 35°48' W 123°26'612.7
2017-Jul-19 16:30N 35°42' W 123°23'612.8
2017-Jul-19 16:00N 35°36' W 123°20'612.9
2017-Jul-19 15:30N 35°31' W 123°16'713.0
2017-Jul-19 15:00N 35°25' W 123°13'613.0
2017-Jul-19 14:30N 35°19' W 123°10'612.7
2017-Jul-19 14:00N 35°13' W 123°07'712.7
2017-Jul-19 13:28N 35°06' W 123°03'612.6
2017-Jul-19 13:00N 35°01' W 123°01'612.5
2017-Jul-19 12:30N 34°57' W 122°55'713.2
2017-Jul-19 12:00N 34°53' W 122°49'612.9
2017-Jul-19 11:30N 34°49' W 122°42'713.1
2017-Jul-19 11:00N 34°46' W 122°36'713.4
2017-Jul-19 10:30N 34°42' W 122°29'713.6
2017-Jul-19 10:00N 34°38' W 122°22'713.2
2017-Jul-19 09:30N 34°34' W 122°16'713.2
2017-Jul-19 09:00N 34°30' W 122°10'713.1
2017-Jul-19 08:30N 34°26' W 122°03'612.8
2017-Jul-19 08:00N 34°22' W 121°57'612.5
2017-Jul-19 07:30N 34°18' W 121°51'612.3
2017-Jul-19 07:00N 34°14' W 121°45'612.3
2017-Jul-19 06:30N 34°10' W 121°40'612.0
2017-Jul-19 06:00N 34°07' W 121°34'611.9
2017-Jul-19 05:30N 34°03' W 121°28'612.2
2017-Jul-19 05:00N 33°59' W 121°22'612.7
2017-Jul-19 04:30N 33°56' W 121°16'612.6
2017-Jul-19 04:00N 33°52' W 121°10'713.0
2017-Jul-19 03:30N 33°48' W 121°04'713.3
2017-Jul-19 03:00N 33°44' W 120°57'713.2
2017-Jul-19 02:30N 33°40' W 120°51'713.5
2017-Jul-19 02:00N 33°37' W 120°44'713.7
2017-Jul-19 01:30N 33°35' W 120°36'713.7
2017-Jul-19 01:00N 33°33' W 120°28'713.9
2017-Jul-19 00:31N 33°31' W 120°20'713.3
2017-Jul-19 00:01N 33°31' W 120°12'713.7
2017-Jul-18 23:30N 33°30' W 120°04'713.9
2017-Jul-18 23:00N 33°30' W 119°55'713.9
2017-Jul-18 22:30N 33°30' W 119°47'713.6
2017-Jul-18 22:00N 33°30' W 119°39'612.7
2017-Jul-18 21:30N 33°32' W 119°31'612.6
2017-Jul-18 21:00N 33°33' W 119°24'612.2
2017-Jul-18 20:30N 33°34' W 119°17'611.9
2017-Jul-18 20:00N 33°36' W 119°10'5 9.6
2017-Jul-18 19:30N 33°37' W 119°04'5 9.5
2017-Jul-18 19:01N 33°37' W 118°59'5 9.1
2017-Jul-18 18:30N 33°38' W 118°53'5 9.4
2017-Jul-18 18:00N 33°38' W 118°48'510.0
2017-Jul-18 17:31N 33°38' W 118°42'5 9.8
2017-Jul-18 17:01N 33°38' W 118°36'5 9.9
2017-Jul-18 16:31N 33°38' W 118°30'510.1
2017-Jul-18 16:01N 33°38' W 118°24'510.4
2017-Jul-18 15:30N 33°38' W 118°17'4 8.6
2017-Jul-18 15:00N 33°42' W 118°15'4 3.5
2017-Jul-18 13:52N 33°45' W 118°17'0 0.0
2017-Jul-18 13:22N 33°45' W 118°17'0 0.0
2017-Jul-18 12:55N 33°45' W 118°17'0 0.0
2017-Jul-18 12:25N 33°45' W 118°17'0 0.0
2017-Jul-18 11:55N 33°45' W 118°17'0 0.0
2017-Jul-18 11:25N 33°45' W 118°17'0 0.0
2017-Jul-18 10:49N 33°45' W 118°17'0 0.0
2017-Jul-18 10:28N 33°45' W 118°17'0 0.1
2017-Jul-18 09:58N 33°45' W 118°17'0 0.1
2017-Jul-18 09:28N 33°45' W 118°17'0 0.0
2017-Jul-18 08:46N 33°45' W 118°17'0 0.0
2017-Jul-18 08:04N 33°45' W 118°17'0 0.1
2017-Jul-18 07:58N 33°45' W 118°17'0 0.0
2017-Jul-18 07:22N 33°45' W 118°17'0 0.1
2017-Jul-18 06:28N 33°45' W 118°17'0 0.1
2017-Jul-18 05:58N 33°45' W 118°17'0 0.0
2017-Jul-18 05:22N 33°45' W 118°17'0 0.0
2017-Jul-18 04:58N 33°45' W 118°17'0 0.0
2017-Jul-18 04:10N 33°45' W 118°17'0 0.0
2017-Jul-18 03:46N 33°45' W 118°17'0 0.0
2017-Jul-18 03:28N 33°45' W 118°17'0 0.0
2017-Jul-18 02:52N 33°45' W 118°17'0 0.0
2017-Jul-18 02:28N 33°45' W 118°17'0 0.0
2017-Jul-18 01:52N 33°45' W 118°17'0 0.0
2017-Jul-18 01:28N 33°45' W 118°17'0 0.0
2017-Jul-18 00:58N 33°45' W 118°17'1 1.2
2017-Jul-18 00:28N 33°45' W 118°16'2 3.7
2017-Jul-18 00:00N 33°43' W 118°16'2 4.1
2017-Jul-17 23:30N 33°43' W 118°14'0 0.1
2017-Jul-17 23:00N 33°43' W 118°14'  
Track history (hours):
 
Tides and Currents Weather Stations Pressure Air Temp Water Temp Dewpoint Dewpoint Depression Visibility Wind Speed Wind Dir Waves Ship Positions

Pelican State

Owner: Crowley Petroleum Serives, Jacksonville, FL. More information available from US FCC via Universal Licensing System and Coast Guard Vessel Documentation Center.

Last reported at 2017-Jul-27 22:30 UTC. Time now 2017-Jul-27 22:33 UTC.
Position N 37°36' W 123°27'.

Length 183 m; draft 9.7 m.

Type: Tanker. MMSI: 367353110.

Date/timePositionNaut miles runAvg speedWind from/ knotsBaromVisibWave heightAir tempDewpointWater temp
2017-Jul-27 22:30N 37°36' W 123°27'611.3
2017-Jul-27 22:00N 37°38' W 123°34'611.5
2017-Jul-27 21:30N 37°40' W 123°41'611.2
2017-Jul-27 21:00N 37°41' W 123°47'511.0
2017-Jul-27 20:30N 37°43' W 123°54'510.7
2017-Jul-27 20:00N 37°45' W 124°00'510.6
2017-Jul-27 19:31N 37°47' W 124°07'610.2
2017-Jul-27 18:57N 37°51' W 124°12'511.6
2017-Jul-27 18:30N 37°55' W 124°15'611.8
2017-Jul-27 18:00N 38°00' W 124°19'712.0
2017-Jul-27 17:26N 38°06' W 124°23'1312.0
2017-Jul-27 16:20N 38°18' W 124°31'412.0
2017-Jul-27 16:00N 38°21' W 124°34'711.9
2017-Jul-27 15:25N 38°27' W 124°38'511.8
2017-Jul-27 14:59N 38°32' W 124°41'1412.0
2017-Jul-27 13:48N 38°44' W 124°51'27911.3
2017-Jul-26 13:09N 43°20' W 125°45'411.5
2017-Jul-26 12:49N 43°24' W 125°45'611.6
2017-Jul-26 12:19N 43°30' W 125°45'511.7
2017-Jul-26 11:55N 43°34' W 125°45'511.9
2017-Jul-26 11:28N 43°39' W 125°45'611.8
2017-Jul-26 11:00N 43°45' W 125°45'611.5
2017-Jul-26 10:31N 43°51' W 125°46'611.6
2017-Jul-26 10:00N 43°57' W 125°45'611.5
2017-Jul-26 09:30N 44°02' W 125°45'611.3
2017-Jul-26 09:00N 44°08' W 125°46'611.6
2017-Jul-26 08:29N 44°14' W 125°46'611.9
2017-Jul-26 08:00N 44°20' W 125°46'611.9
2017-Jul-26 07:29N 44°26' W 125°45'611.7
2017-Jul-26 07:00N 44°31' W 125°45'611.9
2017-Jul-26 06:30N 44°37' W 125°45'611.8
2017-Jul-26 06:00N 44°43' W 125°45'611.6
2017-Jul-26 05:30N 44°49' W 125°45'611.7
2017-Jul-26 05:00N 44°55' W 125°45'611.9
2017-Jul-26 04:30N 45°01' W 125°45'611.7
2017-Jul-26 04:00N 45°07' W 125°45'611.9
2017-Jul-26 03:31N 45°13' W 125°45'612.3
2017-Jul-26 03:00N 45°19' W 125°45'612.1
2017-Jul-26 02:31N 45°25' W 125°45'612.2
2017-Jul-26 02:00N 45°31' W 125°45'612.1
2017-Jul-26 01:30N 45°37' W 125°45'611.9
2017-Jul-26 01:00N 45°43' W 125°45'611.7
2017-Jul-26 00:31N 45°49' W 125°45'611.6
2017-Jul-26 00:01N 45°55' W 125°45'611.7
2017-Jul-25 23:30N 46°00' W 125°45'611.8
2017-Jul-25 23:00N 46°06' W 125°45'611.8
2017-Jul-25 22:30N 46°12' W 125°45'611.7
2017-Jul-25 22:00N 46°18' W 125°45'611.7
2017-Jul-25 21:30N 46°24' W 125°45'611.6
2017-Jul-25 21:00N 46°30' W 125°45'611.8
2017-Jul-25 20:30N 46°36' W 125°45'612.9
2017-Jul-25 20:00N 46°42' W 125°45'813.9
2017-Jul-25 19:27N 46°50' W 125°45'814.7
2017-Jul-25 18:56N 46°57' W 125°45'614.8
2017-Jul-25 18:31N 47°04' W 125°45'714.9
2017-Jul-25 18:01N 47°11' W 125°45'814.8
2017-Jul-25 17:28N 47°19' W 125°45'714.7
2017-Jul-25 17:01N 47°26' W 125°45'714.4
2017-Jul-25 16:30N 47°33' W 125°46'714.2
2017-Jul-25 16:00N 47°40' W 125°45'714.3
2017-Jul-25 15:30N 47°46' W 125°40'714.4
2017-Jul-25 15:01N 47°52' W 125°34'1414.4
2017-Jul-25 14:00N 48°05' W 125°23'714.7
2017-Jul-25 13:30N 48°11' W 125°18'714.3
2017-Jul-25 13:00N 48°18' W 125°13'713.4
2017-Jul-25 12:28N 48°24' W 125°08'613.7
2017-Jul-25 12:00N 48°29' W 125°02'713.1
2017-Jul-25 11:31N 48°31' W 124°53'714.6
2017-Jul-25 11:01N 48°30' W 124°42'714.1
2017-Jul-25 10:30N 48°27' W 124°32'714.0
2017-Jul-25 10:01N 48°25' W 124°22'714.0
2017-Jul-25 09:30N 48°22' W 124°12'714.2
2017-Jul-25 09:00N 48°19' W 124°03'714.3
2017-Jul-25 08:30N 48°17' W 123°52'815.2
2017-Jul-25 08:00N 48°16' W 123°41'714.8
2017-Jul-25 07:30N 48°15' W 123°30'713.2
2017-Jul-25 07:00N 48°10' W 123°23'4 7.9
2017-Jul-25 06:30N 48°10' W 123°17'714.1
2017-Jul-25 05:59N 48°15' W 123°09'613.3
2017-Jul-25 05:30N 48°19' W 123°02'713.3
2017-Jul-25 05:00N 48°22' W 122°53'713.0
2017-Jul-25 04:30N 48°26' W 122°46'510.5
2017-Jul-25 04:00N 48°32' W 122°45'510.7
2017-Jul-25 03:30N 48°37' W 122°45'510.4
2017-Jul-25 03:00N 48°42' W 122°44'510.9
2017-Jul-25 02:30N 48°48' W 122°46'4 0.1
2017-Jul-23 19:56N 48°52' W 122°46'1 2.7
2017-Jul-23 19:28N 48°51' W 122°45'1 2.1
2017-Jul-23 19:00N 48°50' W 122°45'3 4.4
2017-Jul-23 18:25N 48°47' W 122°46'3 8.0
2017-Jul-23 18:00N 48°44' W 122°45'4 8.4
2017-Jul-23 17:30N 48°40' W 122°43'4 9.1
2017-Jul-23 17:00N 48°35' W 122°46'3 6.1
2017-Jul-23 16:30N 48°32' W 122°45'610.3
2017-Jul-23 15:58N 48°32' W 122°36'1 0.1
2017-Jul-22 22:55N 48°31' W 122°35'0 0.1
2017-Jul-22 22:16N 48°31' W 122°35'0 0.2
2017-Jul-22 21:58N 48°31' W 122°35'0 0.1
2017-Jul-22 21:22N 48°31' W 122°35'0 0.0
2017-Jul-22 20:58N 48°31' W 122°35'0 0.0
2017-Jul-22 20:28N 48°31' W 122°35'0 0.0
2017-Jul-22 19:58N 48°31' W 122°35'0 0.3
2017-Jul-22 19:28N 48°31' W 122°35'0 0.0
2017-Jul-22 18:52N 48°31' W 122°35'0 0.1
2017-Jul-22 18:28N 48°31' W 122°35'0 0.0
2017-Jul-22 17:58N 48°31' W 122°35'0 0.0
2017-Jul-22 17:28N 48°31' W 122°35'0 0.1
2017-Jul-22 16:46N 48°31' W 122°35'0 0.0
2017-Jul-22 16:28N 48°31' W 122°35'0 0.0
2017-Jul-22 15:58N 48°31' W 122°35'0 0.0
2017-Jul-22 15:22N 48°31' W 122°35'0 0.0
2017-Jul-22 14:58N 48°31' W 122°35'0 0.0
2017-Jul-22 13:46N 48°31' W 122°35'0 0.1
2017-Jul-22 13:25N 48°31' W 122°35'0 0.1
2017-Jul-22 12:52N 48°31' W 122°35'0 0.0
2017-Jul-22 12:28N 48°31' W 122°35'0 0.0
2017-Jul-22 12:00N 48°31' W 122°35'0 0.0
2017-Jul-22 11:30N 48°31' W 122°35'0 0.2
2017-Jul-22 11:00N 48°31' W 122°35'0 0.2
2017-Jul-22 10:30N 48°31' W 122°35'0 0.0
2017-Jul-22 10:00N 48°31' W 122°35'0 0.3
2017-Jul-22 09:30N 48°31' W 122°35'1 2.8
2017-Jul-22 09:00N 48°31' W 122°37'610.9
2017-Jul-22 08:29N 48°28' W 122°44'714.5
2017-Jul-22 08:00N 48°23' W 122°51'916.1
2017-Jul-22 07:28N 48°18' W 123°01'714.9
2017-Jul-22 06:59N 48°15' W 123°11'714.0
2017-Jul-22 06:28N 48°11' W 123°21'510.1
2017-Jul-22 05:59N 48°11' W 123°28'611.1
2017-Jul-22 05:28N 48°13' W 123°36'612.2
2017-Jul-22 04:59N 48°13' W 123°45'714.2
2017-Jul-22 04:30N 48°14' W 123°55'713.6
2017-Jul-22 04:00N 48°16' W 124°05'713.7
2017-Jul-22 03:30N 48°19' W 124°14'713.5
2017-Jul-22 03:00N 48°22' W 124°23'713.2
2017-Jul-22 02:30N 48°25' W 124°32'713.1
2017-Jul-22 02:00N 48°28' W 124°41'612.8
2017-Jul-22 01:30N 48°28' W 124°51'612.5
2017-Jul-22 01:00N 48°28' W 124°60'814.9
2017-Jul-22 00:30N 48°21' W 125°06'714.7
2017-Jul-22 00:00N 48°15' W 125°11'814.7
2017-Jul-21 23:29N 48°08' W 125°17'3812.5
2017-Jul-21 20:26N 47°35' W 125°45'2215.0
2017-Jul-21 18:59N 47°13' W 125°45'815.4
2017-Jul-21 18:28N 47°05' W 125°45'1320.9
2017-Jul-21 17:50N 46°52' W 125°45'1 3.3
2017-Jul-21 17:30N 46°51' W 125°45'714.5
2017-Jul-21 17:01N 46°44' W 125°45'1814.7
2017-Jul-21 15:48N 46°26' W 125°45'714.9
2017-Jul-21 15:21N 46°20' W 125°45'814.8
2017-Jul-21 14:51N 46°12' W 125°46'515.2
2017-Jul-21 14:30N 46°07' W 125°45'714.9
2017-Jul-21 14:00N 45°60' W 125°45'714.6
2017-Jul-21 13:30N 45°52' W 125°45'814.4
2017-Jul-21 12:57N 45°44' W 125°45'614.5
2017-Jul-21 12:30N 45°38' W 125°44'714.5
2017-Jul-21 12:01N 45°31' W 125°44'714.9
2017-Jul-21 11:31N 45°23' W 125°43'714.9
2017-Jul-21 11:01N 45°16' W 125°42'714.9
2017-Jul-21 10:30N 45°08' W 125°45'815.0
2017-Jul-21 10:00N 45°01' W 125°45'715.0
2017-Jul-21 09:31N 44°54' W 125°45'814.9
2017-Jul-21 09:00N 44°46' W 125°45'714.9
2017-Jul-21 08:31N 44°39' W 125°46'714.6
2017-Jul-21 08:00N 44°31' W 125°46'814.6
2017-Jul-21 07:29N 44°24' W 125°46'714.6
2017-Jul-21 07:00N 44°17' W 125°46'814.8
2017-Jul-21 06:27N 44°09' W 125°45'814.7
2017-Jul-21 05:56N 44°01' W 125°45'613.9
2017-Jul-21 05:31N 43°55' W 125°45'714.5
2017-Jul-21 05:00N 43°48' W 125°45'815.1
2017-Jul-21 04:30N 43°40' W 125°44'915.0
2017-Jul-21 03:54N 43°31' W 125°45'614.8
2017-Jul-21 03:28N 43°25' W 125°45'30614.1
2017-Jul-20 05:43N 38°22' W 124°49'313.2
2017-Jul-20 05:30N 38°19' W 124°48'4413.5
2017-Jul-20 02:15N 37°39' W 124°26'313.4
2017-Jul-20 02:00N 37°35' W 124°25'713.2
2017-Jul-20 01:27N 37°29' W 124°21'613.4
2017-Jul-20 01:00N 37°23' W 124°17'2313.3
2017-Jul-19 23:17N 37°02' W 124°06'413.3
2017-Jul-19 23:00N 36°59' W 124°04'612.9
2017-Jul-19 22:30N 36°53' W 124°01'1912.8
2017-Jul-19 21:00N 36°35' W 123°51'2213.0
2017-Jul-19 19:16N 36°15' W 123°40'312.8
2017-Jul-19 19:00N 36°12' W 123°39'612.9
2017-Jul-19 18:30N 36°06' W 123°35'612.8
2017-Jul-19 18:00N 36°00' W 123°32'612.9
2017-Jul-19 17:30N 35°54' W 123°29'612.9
2017-Jul-19 17:00N 35°48' W 123°26'612.7
2017-Jul-19 16:30N 35°42' W 123°23'612.8
2017-Jul-19 16:00N 35°36' W 123°20'612.9
2017-Jul-19 15:30N 35°31' W 123°16'713.0
2017-Jul-19 15:00N 35°25' W 123°13'613.0
2017-Jul-19 14:30N 35°19' W 123°10'612.7
2017-Jul-19 14:00N 35°13' W 123°07'712.7
2017-Jul-19 13:28N 35°06' W 123°03'612.6
2017-Jul-19 13:00N 35°01' W 123°01'612.5
2017-Jul-19 12:30N 34°57' W 122°55'713.2
2017-Jul-19 12:00N 34°53' W 122°49'612.9
2017-Jul-19 11:30N 34°49' W 122°42'713.1
2017-Jul-19 11:00N 34°46' W 122°36'713.4
2017-Jul-19 10:30N 34°42' W 122°29'713.6
2017-Jul-19 10:00N 34°38' W 122°22'713.2
2017-Jul-19 09:30N 34°34' W 122°16'713.2
2017-Jul-19 09:00N 34°30' W 122°10'713.1
2017-Jul-19 08:30N 34°26' W 122°03'612.8
2017-Jul-19 08:00N 34°22' W 121°57'612.5
2017-Jul-19 07:30N 34°18' W 121°51'612.3
2017-Jul-19 07:00N 34°14' W 121°45'612.3
2017-Jul-19 06:30N 34°10' W 121°40'612.0
2017-Jul-19 06:00N 34°07' W 121°34'611.9
2017-Jul-19 05:30N 34°03' W 121°28'612.2
2017-Jul-19 05:00N 33°59' W 121°22'612.7
2017-Jul-19 04:30N 33°56' W 121°16'612.6
2017-Jul-19 04:00N 33°52' W 121°10'713.0
2017-Jul-19 03:30N 33°48' W 121°04'713.3
2017-Jul-19 03:00N 33°44' W 120°57'713.2
2017-Jul-19 02:30N 33°40' W 120°51'713.5
2017-Jul-19 02:00N 33°37' W 120°44'713.7
2017-Jul-19 01:30N 33°35' W 120°36'713.7
2017-Jul-19 01:00N 33°33' W 120°28'713.9
2017-Jul-19 00:31N 33°31' W 120°20'713.3
2017-Jul-19 00:01N 33°31' W 120°12'713.7
2017-Jul-18 23:30N 33°30' W 120°04'713.9
2017-Jul-18 23:00N 33°30' W 119°55'713.9
2017-Jul-18 22:30N 33°30' W 119°47'713.6
2017-Jul-18 22:00N 33°30' W 119°39'612.7
2017-Jul-18 21:30N 33°32' W 119°31'612.6
2017-Jul-18 21:00N 33°33' W 119°24'612.2
2017-Jul-18 20:30N 33°34' W 119°17'611.9
2017-Jul-18 20:00N 33°36' W 119°10'5 9.6
2017-Jul-18 19:30N 33°37' W 119°04'5 9.5
2017-Jul-18 19:01N 33°37' W 118°59'5 9.1
2017-Jul-18 18:30N 33°38' W 118°53'5 9.4
2017-Jul-18 18:00N 33°38' W 118°48'510.0
2017-Jul-18 17:31N 33°38' W 118°42'5 9.8
2017-Jul-18 17:01N 33°38' W 118°36'5 9.9
2017-Jul-18 16:31N 33°38' W 118°30'510.1
2017-Jul-18 16:01N 33°38' W 118°24'510.4
2017-Jul-18 15:30N 33°38' W 118°17'4 8.6
2017-Jul-18 15:00N 33°42' W 118°15'4 3.5
2017-Jul-18 13:52N 33°45' W 118°17'0 0.0
2017-Jul-18 13:22N 33°45' W 118°17'0 0.0
2017-Jul-18 12:55N 33°45' W 118°17'0 0.0
2017-Jul-18 12:25N 33°45' W 118°17'0 0.0
2017-Jul-18 11:55N 33°45' W 118°17'0 0.0
2017-Jul-18 11:25N 33°45' W 118°17'0 0.0
2017-Jul-18 10:49N 33°45' W 118°17'0 0.0
2017-Jul-18 10:28N 33°45' W 118°17'0 0.1
2017-Jul-18 09:58N 33°45' W 118°17'0 0.1
2017-Jul-18 09:28N 33°45' W 118°17'0 0.0
2017-Jul-18 08:46N 33°45' W 118°17'0 0.0
2017-Jul-18 08:04N 33°45' W 118°17'0 0.1
2017-Jul-18 07:58N 33°45' W 118°17'0 0.0
2017-Jul-18 07:22N 33°45' W 118°17'0 0.1
2017-Jul-18 06:28N 33°45' W 118°17'0 0.1
2017-Jul-18 05:58N 33°45' W 118°17'0 0.0
2017-Jul-18 05:22N 33°45' W 118°17'0 0.0
2017-Jul-18 04:58N 33°45' W 118°17'0 0.0
2017-Jul-18 04:10N 33°45' W 118°17'0 0.0
2017-Jul-18 03:46N 33°45' W 118°17'0 0.0
2017-Jul-18 03:28N 33°45' W 118°17'0 0.0
2017-Jul-18 02:52N 33°45' W 118°17'0 0.0
2017-Jul-18 02:28N 33°45' W 118°17'0 0.0
2017-Jul-18 01:52N 33°45' W 118°17'0 0.0
2017-Jul-18 01:28N 33°45' W 118°17'0 0.0
2017-Jul-18 00:58N 33°45' W 118°17'1 1.2
2017-Jul-18 00:28N 33°45' W 118°16'2 3.7
2017-Jul-18 00:00N 33°43' W 118°16'2 4.1
2017-Jul-17 23:30N 33°43' W 118°14'0 0.1
2017-Jul-17 23:00N 33°43' W 118°14'  

Dump ship's entire track history